Time;durP1;ratioP1;P1;durP2;ratioP2;P2;SDS_P1;SDS_P2;PMS_P1;PMS_P2;Temp;Humidity;BMP_temperature;BMP_pressure;BME280_temperature;BME280_humidity;BME280_pressure;Samples;Min_cycle;Max_cycle;Signal;HPM_P1;HPM_P2
2022/10/16 00:00:45;;;;;;;117.63;41.03;;;;;;;2.86;100.00;101146.99;1750664;82;21058;-72
2022/10/16 00:03:12;;;;;;;106.10;37.77;;;;;;;2.85;100.00;101150.60;1750563;82;21026;-73
2022/10/16 00:05:41;;;;;;;167.33;54.63;;;;;;;2.83;100.00;101157.41;1750533;81;20995;-73
2022/10/16 00:08:11;;;;;;;155.47;53.10;;;;;;;2.82;100.00;101155.67;1750729;82;21437;-73
2022/10/16 00:10:39;;;;;;;149.30;50.33;;;;;;;2.81;100.00;101147.75;1750763;81;21065;-72
2022/10/16 00:13:06;;;;;;;103.10;37.67;;;;;;;2.80;100.00;101144.72;1750567;82;21065;-73
2022/10/16 00:15:36;;;;;;;83.47;32.00;;;;;;;2.79;100.00;101150.52;1750624;80;21471;-73
2022/10/16 00:18:04;;;;;;;68.17;27.27;;;;;;;2.77;100.00;101148.90;1750765;82;21073;-72
2022/10/16 00:20:34;;;;;;;42.77;17.13;;;;;;;2.75;100.00;101142.80;1750934;82;21031;-72
2022/10/16 00:23:01;;;;;;;33.30;13.27;;;;;;;2.72;100.00;101145.64;1750621;81;21031;-72
2022/10/16 00:25:28;;;;;;;26.67;10.70;;;;;;;2.68;100.00;101142.79;1750557;82;21066;-73
2022/10/16 00:27:55;;;;;;;34.83;12.33;;;;;;;2.66;100.00;101143.73;1750751;82;21073;-72
2022/10/16 00:30:23;;;;;;;54.87;19.60;;;;;;;2.65;100.00;101146.48;1750098;81;21496;-73
2022/10/16 00:32:50;;;;;;;68.90;24.23;;;;;;;2.62;100.00;101138.20;1748077;82;21054;-72
2022/10/16 00:35:17;;;;;;;51.07;19.50;;;;;;;2.61;100.00;101142.30;1748025;82;21022;-73
2022/10/16 00:37:44;;;;;;;42.47;17.63;;;;;;;2.60;100.00;101149.45;1747872;80;21051;-73
2022/10/16 00:40:11;;;;;;;43.30;17.80;;;;;;;2.59;100.00;101149.55;1747922;80;21084;-73
2022/10/16 00:42:38;;;;;;;49.97;20.33;;;;;;;2.58;100.00;101151.81;1748050;82;21548;-72
2022/10/16 00:45:08;;;;;;;72.77;24.90;;;;;;;2.57;100.00;101154.97;1748239;82;20990;-73
2022/10/16 00:47:42;;;;;;;99.47;31.80;;;;;;;2.56;100.00;101149.23;1748332;82;20999;-73
2022/10/16 00:50:17;;;;;;;91.73;30.47;;;;;;;2.52;100.00;101153.54;1748198;80;21018;-72
2022/10/16 00:52:48;;;;;;;66.10;25.40;;;;;;;2.45;100.00;101151.70;1744611;82;21078;-72
2022/10/16 00:55:14;;;;;;;70.07;25.97;;;;;;;2.40;100.00;101157.30;1751529;80;21005;-72
2022/10/16 00:57:42;;;;;;;55.70;21.53;;;;;;;2.35;100.00;101155.86;1752974;82;21014;-72
2022/10/16 01:00:13;;;;;;;41.03;18.30;;;;;;;2.29;100.00;101149.08;1753288;82;21021;-72
2022/10/16 01:02:40;;;;;;;39.73;16.50;;;;;;;2.25;100.00;101147.55;1753561;82;21060;-72
2022/10/16 01:05:07;;;;;;;39.73;16.57;;;;;;;2.22;100.00;101155.73;1728040;82;20989;-73
2022/10/16 01:08:10;;;;;;;37.97;15.50;;;;;;;2.20;100.00;101152.30;1753041;81;21068;-73
2022/10/16 01:11:04;;;;;;;29.57;12.28;;;;;;;2.18;100.00;101155.05;1753409;82;21053;-72
2022/10/16 01:13:37;;;;;;;28.65;11.55;;;;;;;2.16;100.00;101146.28;1665619;86;21089;-72
2022/10/16 01:16:17;;;;;;;28.00;13.13;;;;;;;2.16;100.00;101148.95;1665761;86;21057;-72
2022/10/16 01:18:49;;;;;;;28.93;12.70;;;;;;;2.14;100.00;101145.48;1665785;86;21014;-72
2022/10/16 01:21:23;;;;;;;25.03;10.13;;;;;;;2.12;100.00;101142.05;1602151;89;21039;-72
2022/10/16 01:24:33;;;;;;;24.87;9.90;;;;;;;2.10;100.00;101143.95;1604158;88;21173;-73
2022/10/16 01:27:14;;;;;;;22.60;9.33;;;;;;;2.07;100.00;101135.67;1574513;91;21087;-72
2022/10/16 01:29:49;;;;;;;22.73;9.13;;;;;;;2.04;100.00;101137.17;1549066;93;21122;-73
2022/10/16 01:32:34;;;;;;;24.90;9.83;;;;;;;2.02;100.00;101138.20;1551379;91;21135;-73
2022/10/16 01:35:27;;;;;;;20.93;7.77;;;;;;;1.99;100.00;101130.39;1548458;91;21137;-73
2022/10/16 01:38:10;;;;;;;16.57;7.70;;;;;;;1.97;100.00;101130.48;1548697;92;21059;-73
2022/10/16 01:40:39;;;;;;;20.05;7.72;;;;;;;1.95;100.00;101124.38;1548409;92;21063;-73
2022/10/16 01:43:13;;;;;;;16.93;7.63;;;;;;;1.95;100.00;101135.50;1548617;93;21039;-73
2022/10/16 01:45:40;;;;;;;17.53;7.37;;;;;;;1.92;100.00;101128.55;1548397;93;21651;-72
2022/10/16 01:48:09;;;;;;;23.17;9.00;;;;;;;1.93;100.00;101136.07;1548406;93;21098;-73
2022/10/16 01:50:39;;;;;;;56.97;18.73;;;;;;;1.93;100.00;101133.41;1548455;92;21070;-72
2022/10/16 01:53:07;;;;;;;71.80;19.17;;;;;;;1.94;100.00;101133.31;1557335;92;21110;-72
2022/10/16 01:55:37;;;;;;;61.17;18.00;;;;;;;1.97;100.00;101137.15;1594801;90;21095;-72
2022/10/16 01:58:07;;;;;;;89.97;26.40;;;;;;;1.98;100.00;101131.33;1597151;89;21027;-73
2022/10/16 02:00:37;;;;;;;98.63;32.43;;;;;;;1.98;100.00;101135.33;1576940;90;21594;-72
2022/10/16 02:03:04;;;;;;;88.63;31.30;;;;;;;1.98;100.00;101137.52;1576904;90;21047;-73
2022/10/16 02:05:52;;;;;;;71.87;25.30;;;;;;;1.99;100.00;101127.73;1597169;89;21069;-73
2022/10/16 02:08:20;;;;;;;54.77;20.50;;;;;;;1.99;100.00;101129.06;1597321;89;21070;-72
2022/10/16 02:10:46;;;;;;;39.17;15.43;;;;;;;1.95;100.00;101123.50;1602292;89;21117;-73
2022/10/16 02:13:21;;;;;;;32.10;13.87;;;;;;;1.93;100.00;101122.73;1603969;89;21079;-73
2022/10/16 02:15:48;;;;;;;29.57;11.77;;;;;;;1.90;100.00;101123.78;1603868;89;21110;-73
2022/10/16 02:18:16;;;;;;;30.13;11.53;;;;;;;1.87;100.00;101126.14;1656333;85;21053;-73
2022/10/16 02:20:57;;;;;;;29.80;11.67;;;;;;;1.85;100.00;101126.70;1695603;85;21034;-73
2022/10/16 02:23:33;;;;;;;26.00;10.83;;;;;;;1.82;100.00;101128.20;1660073;86;21121;-72
2022/10/16 02:26:00;;;;;;;32.57;12.50;;;;;;;1.79;100.00;101129.73;1631813;86;21075;-72
2022/10/16 02:28:39;;;;;;;63.63;21.87;;;;;;;1.74;100.00;101130.47;1594892;90;21071;-73
2022/10/16 02:31:09;;;;;;;80.90;26.70;;;;;;;1.71;100.00;101134.64;1558047;92;21094;-72
2022/10/16 02:33:39;;;;;;;94.87;28.37;;;;;;;1.69;100.00;101137.39;1566419;92;21090;-72
2022/10/16 02:36:06;;;;;;;122.57;36.70;;;;;;;1.69;100.00;101140.53;1564058;92;21054;-73
2022/10/16 02:38:33;;;;;;;84.37;29.30;;;;;;;1.68;100.00;101145.47;1563707;92;21086;-73
2022/10/16 02:41:01;;;;;;;61.93;21.73;;;;;;;1.65;100.00;101139.85;1563699;92;21165;-73
2022/10/16 02:43:28;;;;;;;38.30;16.00;;;;;;;1.65;100.00;101147.85;1563718;92;21106;-72
2022/10/16 02:45:55;;;;;;;39.70;16.13;;;;;;;1.65;100.00;101143.85;1563881;92;21058;-73
2022/10/16 02:48:21;;;;;;;62.60;23.27;;;;;;;1.65;100.00;101141.19;1563962;92;21058;-73
2022/10/16 02:50:49;;;;;;;75.90;25.73;;;;;;;1.66;100.00;101144.70;1563755;92;21584;-72
2022/10/16 02:53:16;;;;;;;50.03;18.53;;;;;;;1.64;100.00;101148.78;1563678;92;21567;-73
2022/10/16 02:55:43;;;;;;;34.10;13.43;;;;;;;1.63;100.00;101149.75;1577171;89;21024;-72
2022/10/16 02:58:10;;;;;;;29.40;11.70;;;;;;;1.63;100.00;101151.53;1579967;91;21507;-73
2022/10/16 03:00:37;;;;;;;26.83;10.37;;;;;;;1.62;100.00;101153.83;1579583;89;21139;-74
2022/10/16 03:03:04;;;;;;;25.63;9.10;;;;;;;1.61;100.00;101152.98;1579876;91;21091;-72
2022/10/16 03:05:30;;;;;;;23.97;8.77;;;;;;;1.61;100.00;101155.65;1579692;91;21584;-73
2022/10/16 03:08:00;;;;;;;24.27;8.77;;;;;;;1.61;100.00;101158.31;1579642;91;21120;-73
2022/10/16 03:10:27;;;;;;;21.90;8.23;;;;;;;1.61;100.00;101156.09;1579882;91;21606;-73
2022/10/16 03:12:54;;;;;;;18.83;6.87;;;;;;;1.60;100.00;101149.91;1579844;91;21095;-73
2022/10/16 03:15:21;;;;;;;16.57;7.30;;;;;;;1.60;100.00;101150.39;1579790;91;21128;-72
2022/10/16 03:17:48;;;;;;;16.57;6.50;;;;;;;1.60;100.00;101150.39;1580174;91;21103;-72
2022/10/16 03:20:15;;;;;;;18.60;6.70;;;;;;;1.57;100.00;101146.56;1613313;88;21114;-74
2022/10/16 03:22:42;;;;;;;15.33;5.80;;;;;;;1.57;100.00;101151.89;1680996;84;21086;-73
2022/10/16 03:25:09;;;;;;;14.80;6.27;;;;;;;1.55;100.00;101149.31;1694029;83;21480;-73
2022/10/16 03:27:37;;;;;;;14.83;6.40;;;;;;;1.54;100.00;101148.05;1687445;81;21100;-73
2022/10/16 03:30:04;;;;;;;11.40;5.87;;;;;;;1.50;100.00;101141.55;1731398;81;21046;-72
2022/10/16 03:32:31;;;;;;;12.93;5.53;;;;;;;1.47;100.00;101140.87;1724571;81;21050;-73
2022/10/16 03:34:59;;;;;;;14.47;6.10;;;;;;;1.44;100.00;101129.92;1725490;83;21065;-73
2022/10/16 03:37:26;;;;;;;10.03;5.50;;;;;;;1.44;100.00;101130.41;1726571;82;21057;-72
2022/10/16 03:39:55;;;;;;;12.07;5.63;;;;;;;1.43;100.00;101140.17;1724594;82;21038;-72
2022/10/16 03:42:22;;;;;;;13.50;6.43;;;;;;;1.43;100.00;101135.33;1723944;83;20998;-72
2022/10/16 03:44:49;;;;;;;12.63;5.53;;;;;;;1.41;100.00;101129.23;1724221;83;21460;-73
2022/10/16 03:47:20;;;;;;;15.00;6.20;;;;;;;1.41;100.00;101134.08;1700276;83;20998;-73
2022/10/16 03:49:44;;;;;;;14.40;5.63;;;;;;;1.42;100.00;101124.30;1720190;83;21034;-73
2022/10/16 03:52:12;;;;;;;10.07;5.27;;;;;;;1.44;100.00;101119.73;1724147;82;21108;-73
2022/10/16 03:54:39;;;;;;;13.13;5.93;;;;;;;1.47;100.00;101121.76;1752788;80;21082;-73
2022/10/16 03:57:06;;;;;;;13.13;6.13;;;;;;;1.49;100.00;101117.20;1753721;80;21548;-74
2022/10/16 03:59:33;;;;;;;13.40;6.20;;;;;;;1.51;100.00;101121.97;1750775;82;21042;-71
2022/10/16 04:02:00;;;;;;;14.13;6.43;;;;;;;1.52;100.00;101124.14;1751193;82;21061;-72
2022/10/16 04:04:27;;;;;;;13.90;6.30;;;;;;;1.53;100.00;101123.70;1750944;82;21519;-72
2022/10/16 04:06:54;;;;;;;13.93;6.03;;;;;;;1.54;100.00;101122.28;1751017;82;21062;-72
2022/10/16 04:09:21;;;;;;;13.10;5.57;;;;;;;1.53;100.00;101119.22;1750832;82;21512;-73
2022/10/16 04:11:49;;;;;;;10.37;5.20;;;;;;;1.55;100.00;101124.46;1750865;81;21030;-73
2022/10/16 04:14:16;;;;;;;13.23;5.70;;;;;;;1.56;100.00;101123.50;1750979;82;21488;-73
2022/10/16 04:16:44;;;;;;;13.30;6.03;;;;;;;1.57;100.00;101127.90;1750753;82;21070;-73
2022/10/16 04:19:11;;;;;;;14.37;6.37;;;;;;;1.58;100.00;101130.97;1750381;82;21149;-73
2022/10/16 04:21:38;;;;;;;13.97;6.10;;;;;;;1.59;100.00;101123.33;1750903;80;21030;-73
2022/10/16 04:24:07;;;;;;;14.23;6.70;;;;;;;1.62;100.00;101124.02;1750517;81;21030;-72
2022/10/16 04:26:34;;;;;;;12.57;5.60;;;;;;;1.63;100.00;101129.75;1750645;82;21065;-73
2022/10/16 04:29:01;;;;;;;13.93;6.27;;;;;;;1.66;100.00;101128.22;1750684;81;21496;-73
2022/10/16 04:31:28;;;;;;;11.07;5.20;;;;;;;1.70;100.00;101130.27;1749828;81;21537;-73
2022/10/16 04:33:54;;;;;;;14.17;5.90;;;;;;;1.73;100.00;101126.55;1748478;82;21061;-72
2022/10/16 04:36:21;;;;;;;13.17;5.47;;;;;;;1.73;100.00;101127.89;1748053;82;21046;-73
2022/10/16 04:38:48;;;;;;;13.17;6.30;;;;;;;1.72;100.00;101135.04;1748181;82;21019;-72
2022/10/16 04:41:16;;;;;;;13.10;6.33;;;;;;;1.72;100.00;101127.04;1748329;82;21031;-72
2022/10/16 04:43:43;;;;;;;13.83;6.33;;;;;;;1.73;100.00;101127.89;1748494;82;20971;-71
2022/10/16 04:46:10;;;;;;;14.17;6.57;;;;;;;1.73;100.00;101134.07;1748347;82;21074;-73
2022/10/16 04:48:37;;;;;;;12.70;5.80;;;;;;;1.77;100.00;101129.42;1748142;82;21030;-72
2022/10/16 04:51:04;;;;;;;13.23;5.83;;;;;;;1.83;100.00;101136.61;1748096;82;21062;-73
2022/10/16 04:53:31;;;;;;;11.10;5.77;;;;;;;1.90;100.00;101139.78;1748227;82;21081;-73
2022/10/16 04:55:58;;;;;;;13.30;5.70;;;;;;;1.98;100.00;101145.52;1780936;79;21444;-72
2022/10/16 04:58:25;;;;;;;12.30;5.80;;;;;;;2.03;100.00;101142.59;1812915;79;20971;-73
2022/10/16 05:00:52;;;;;;;16.30;5.77;;;;;;;2.07;100.00;101141.46;1813049;79;21030;-73
2022/10/16 05:03:19;;;;;;;9.77;5.67;;;;;;;2.12;100.00;101145.20;1812770;79;21503;-72
2022/10/16 05:05:45;;;;;;;11.27;5.40;;;;;;;2.16;100.00;101162.75;1813509;79;21441;-73
2022/10/16 05:08:13;;;;;;;9.63;5.03;;;;;;;2.21;100.00;101158.00;1816354;79;21038;-72
2022/10/16 05:10:41;;;;;;;9.63;4.70;;;;;;;2.27;100.00;101160.33;1814051;77;21447;-73
2022/10/16 05:13:08;;;;;;;11.33;5.53;;;;;;;2.31;100.00;101160.52;1780582;79;21113;-72
2022/10/16 05:15:36;;;;;;;9.63;5.07;;;;;;;2.37;100.00;101161.48;1813096;79;20982;-73
2022/10/16 05:18:03;;;;;;;12.50;5.07;;;;;;;2.42;100.00;101160.73;1812626;79;21041;-73
2022/10/16 05:20:30;;;;;;;12.30;5.90;;;;;;;2.50;100.00;101170.09;1812913;79;21081;-73
2022/10/16 05:22:57;;;;;;;13.97;4.90;;;;;;;2.55;100.00;101160.89;1812820;78;21606;-74
2022/10/16 05:25:24;;;;;;;13.37;5.37;;;;;;;2.60;100.00;101160.14;1812918;79;21014;-74
2022/10/16 05:27:51;;;;;;;9.87;5.10;;;;;;;2.68;100.00;101172.17;1812952;79;21022;-73
2022/10/16 05:30:17;;;;;;;11.83;5.73;;;;;;;2.75;100.00;101173.52;1813079;79;20978;-71
2022/10/16 05:32:49;;;;;;;9.93;5.33;;;;;;;2.82;100.00;101170.84;1812799;79;21507;-70
2022/10/16 05:35:16;;;;;;;9.47;5.43;;;;;;;2.90;100.00;101171.70;1812600;79;21053;-71
2022/10/16 05:37:44;;;;;;;12.67;6.43;;;;;;;2.98;100.00;101171.63;1812932;78;21002;-71
2022/10/16 05:40:12;;;;;;;11.20;5.93;;;;;;;3.04;100.00;101169.89;1812540;79;21484;-73
2022/10/16 05:42:40;;;;;;;15.43;6.50;;;;;;;3.12;100.00;101173.94;1812956;79;20975;-71
2022/10/16 05:45:09;;;;;;;13.40;6.13;;;;;;;3.20;100.00;101168.45;1812667;79;20987;-70
2022/10/16 05:47:37;;;;;;;26.80;10.47;;;;;;;3.27;100.00;101172.95;1779058;79;21041;-71
2022/10/16 05:50:06;;;;;;;43.60;16.83;;;;;;;3.36;100.00;101171.03;1812648;78;21500;-71
2022/10/16 05:52:32;;;;;;;57.30;21.90;;;;;;;3.47;100.00;101176.19;1813042;79;21455;-72
2022/10/16 05:54:59;;;;;;;56.37;19.73;;;;;;;3.54;100.00;101173.04;1800503;79;21512;-72
2022/10/16 05:57:26;;;;;;;37.93;14.30;;;;;;;3.64;100.00;101182.66;1747747;82;21057;-71
2022/10/16 05:59:53;;;;;;;82.60;29.20;;;;;;;3.74;100.00;101178.92;1748134;82;21031;-71
2022/10/16 06:02:20;;;;;;;57.23;21.63;;;;;;;3.86;100.00;101186.16;1748036;82;21011;-70
2022/10/16 06:04:46;;;;;;;75.77;27.77;;;;;;;3.99;100.00;101186.20;1748046;82;21074;-70
2022/10/16 06:07:13;;;;;;;94.03;32.10;;;;;;;4.11;100.00;101192.09;1747896;82;21039;-71
2022/10/16 06:09:40;;;;;;;111.37;38.77;;;;;;;4.23;100.00;101197.09;1747872;81;21007;-71
2022/10/16 06:12:09;;;;;;;57.40;21.40;;;;;;;4.38;100.00;101201.93;1747755;82;21019;-72
2022/10/16 06:14:35;;;;;;;64.33;22.77;;;;;;;4.49;100.00;101203.88;1747814;82;21031;-71
2022/10/16 06:17:02;;;;;;;47.13;17.07;;;;;;;4.60;100.00;101207.17;1748117;82;21014;-71
2022/10/16 06:19:31;;;;;;;29.73;11.70;;;;;;;4.76;100.00;101203.82;1747904;82;21078;-71
2022/10/16 06:21:58;;;;;;;64.03;23.57;;;;;;;4.91;100.00;101208.62;1748303;82;21014;-71
2022/10/16 06:24:25;;;;;;;42.80;16.77;;;;;;;5.09;100.00;101218.06;1747943;82;21066;-71
2022/10/16 06:26:52;;;;;;;78.40;28.57;;;;;;;5.27;100.00;101218.59;1748102;82;21018;-71
2022/10/16 06:29:19;;;;;;;30.90;12.50;;;;;;;5.47;100.00;101223.02;1747874;82;21035;-71
2022/10/16 06:31:45;;;;;;;116.83;38.07;;;;;;;5.69;100.00;101223.70;1748164;81;21011;-70
2022/10/16 06:34:12;;;;;;;122.70;41.93;;;;;;;5.89;100.00;101226.27;1747892;82;21054;-70
2022/10/16 06:36:39;;;;;;;67.67;26.50;;;;;;;6.18;100.00;101228.67;1747963;82;21050;-71
2022/10/16 06:39:07;;;;;;;73.13;27.13;;;;;;;6.42;100.00;101230.88;1747999;82;21019;-70
2022/10/16 06:41:34;;;;;;;31.47;12.90;;;;;;;6.63;100.00;101227.56;1748000;82;21070;-71
2022/10/16 06:44:06;;;;;;;35.13;13.97;;;;;;;6.86;100.00;101233.02;1744343;82;21468;-71
2022/10/16 06:46:35;;;;;;;43.08;18.17;;;;;;;7.11;100.00;101238.69;1748244;82;21562;-71
2022/10/16 06:49:04;;;;;;;26.40;10.07;;;;;;;7.33;100.00;101247.27;1747754;82;21046;-71
2022/10/16 06:51:31;;;;;;;26.37;9.73;;;;;;;7.50;100.00;101264.80;1748245;80;21019;-72
2022/10/16 06:53:58;;;;;;;20.73;8.83;;;;;;;7.63;100.00;101269.56;1748676;81;21007;-71
2022/10/16 06:56:27;;;;;;;27.23;9.67;;;;;;;7.79;100.00;101281.30;1753378;82;20974;-71
2022/10/16 06:58:54;;;;;;;23.97;10.43;;;;;;;7.92;100.00;101283.40;1753316;82;21021;-71
2022/10/16 07:01:23;;;;;;;18.37;7.80;;;;;;;8.06;100.00;101297.11;1753173;82;21551;-70
2022/10/16 07:03:50;;;;;;;17.20;7.03;;;;;;;8.19;100.00;101295.61;1753572;82;21108;-70
2022/10/16 07:06:22;;;;;;;13.83;6.37;;;;;;;8.32;100.00;101308.93;1753299;82;21017;-70
2022/10/16 07:08:50;;;;;;;36.20;11.28;;;;;;;8.49;100.00;101312.48;1753320;80;21498;-71
2022/10/16 07:11:20;;;;;;;22.48;8.90;;;;;;;8.68;100.00;101316.38;1753829;81;21029;-70
2022/10/16 07:13:50;;;;;;;35.23;13.67;;;;;;;8.87;100.00;101317.89;1753799;82;21444;-71
2022/10/16 07:16:20;;;;;;;21.05;8.30;;;;;;;9.02;100.00;101326.52;1753656;82;21625;-72
2022/10/16 07:18:49;;;;;;;13.08;5.83;;;;;;;9.22;100.00;101330.22;1729475;82;21017;-71
2022/10/16 07:21:20;;;;;;;19.87;8.40;;;;;;;9.40;100.00;101343.13;1755438;82;21015;-71
2022/10/16 07:23:53;;;;;;;14.45;6.30;;;;;;;9.60;100.00;101353.08;1754005;82;21097;-70
2022/10/16 07:26:20;;;;;;;15.98;6.83;;;;;;;9.79;100.00;101363.16;1695401;85;21618;-71
2022/10/16 07:28:47;;;;;;;26.73;11.22;;;;;;;9.95;100.00;101373.95;1695635;85;21064;-71
2022/10/16 07:31:15;;;;;;;15.35;7.25;;;;;;;10.11;100.00;101382.44;1695794;85;21004;-71
2022/10/16 07:33:44;;;;;;;16.73;6.75;;;;;;;10.31;100.00;101383.88;1687482;85;21506;-72
2022/10/16 07:36:11;;;;;;;16.48;6.75;;;;;;;10.48;100.00;101386.44;1685996;85;21076;-72
2022/10/16 07:38:38;;;;;;;15.03;6.70;;;;;;;10.66;100.00;101392.03;1686062;85;21044;-71
2022/10/16 07:41:07;;;;;;;13.93;7.05;;;;;;;10.77;100.00;101399.55;1663289;85;21057;-71
2022/10/16 07:43:36;;;;;;;14.60;6.20;;;;;;;10.92;100.00;101404.05;1687694;85;21088;-71
2022/10/16 07:46:02;;;;;;;13.38;5.72;;;;;;;11.04;100.00;101405.30;1688773;83;21044;-71
2022/10/16 07:48:31;;;;;;;8.83;4.58;;;;;;;11.14;100.00;101408.37;1686364;85;21078;-70
2022/10/16 07:51:00;;;;;;;9.18;4.80;;;;;;;11.25;100.00;101397.05;1686064;85;21115;-71
2022/10/16 07:53:27;;;;;;;9.25;4.90;;;;;;;11.33;100.00;101399.87;1686119;83;21043;-71
2022/10/16 07:56:01;;;;;;;10.13;5.17;;;;;;;11.35;100.00;101406.87;1687014;85;21068;-72
2022/10/16 07:58:29;;;;;;;9.68;5.30;;;;;;;11.43;100.00;101408.02;1687953;85;21030;-71
2022/10/16 08:00:56;;;;;;;10.10;4.83;;;;;;;11.58;100.00;101407.44;1688009;85;21086;-71
2022/10/16 08:03:25;;;;;;;9.95;4.78;;;;;;;11.66;100.00;101401.79;1687821;85;21454;-71
2022/10/16 08:05:53;;;;;;;9.23;4.65;;;;;;;11.74;100.00;101402.77;1660290;86;21082;-72
2022/10/16 08:08:20;;;;;;;10.10;4.92;;;;;;;11.84;100.00;101405.96;1660757;86;21122;-71
2022/10/16 08:10:47;;;;;;;9.65;4.42;;;;;;;11.99;100.00;101406.37;1660823;86;21016;-72
2022/10/16 08:13:14;;;;;;;9.45;4.58;;;;;;;12.08;100.00;101406.36;1660740;86;21095;-72
2022/10/16 08:15:42;;;;;;;8.23;3.92;;;;;;;12.09;100.00;101408.56;1660498;86;21170;-71
2022/10/16 08:18:11;;;;;;;7.75;4.20;;;;;;;12.18;100.00;101400.04;1660662;86;21086;-71
2022/10/16 08:20:40;;;;;;;5.40;3.60;;;;;;;12.39;100.00;101395.75;1660349;86;21146;-71
2022/10/16 08:23:09;;;;;;;5.20;3.25;;;;;;;12.63;100.00;101396.56;1662327;86;21068;-71
2022/10/16 08:25:37;;;;;;;7.08;3.80;;;;;;;12.90;100.00;101389.73;1642135;86;21131;-71
2022/10/16 08:28:08;;;;;;;6.90;3.85;;;;;;;13.24;100.00;101388.20;1664025;86;21060;-71
2022/10/16 08:30:35;;;;;;;7.05;3.58;;;;;;;13.40;100.00;101396.55;1664241;86;21063;-71
2022/10/16 08:33:03;;;;;;;6.67;3.87;;;;;;;13.51;100.00;101402.24;1663871;86;21123;-71
2022/10/16 08:35:30;;;;;;;7.15;3.87;;;;;;;13.56;100.00;101403.11;1664272;86;21044;-69
2022/10/16 08:37:56;;;;;;;6.58;3.85;;;;;;;13.54;100.00;101411.93;1664204;86;21462;-71
2022/10/16 08:43:26;;;;;;;5.00;3.42;;;;;;;13.41;100.00;101403.67;1601273;90;21515;-70
2022/10/16 08:46:19;;;;;;;6.62;3.85;;;;;;;13.40;100.00;101414.69;1579863;91;21061;-70
2022/10/16 08:48:54;;;;;;;;;;;;;;;13.38;100.00;101414.84;1562281;89;21583;-69
2022/10/16 08:51:24;;;;;;;6.58;3.60;;;;;;;13.35;100.00;101402.08;1555007;92;20171;-70
2022/10/16 08:54:01;;;;;;;6.53;3.72;;;;;;;13.48;100.00;101402.55;1545640;93;21135;-70
2022/10/16 08:56:28;;;;;;;6.80;3.50;;;;;;;13.80;100.00;101392.42;1546525;93;21059;-69
2022/10/16 08:58:55;;;;;;;7.65;3.65;;;;;;;13.80;100.00;101392.42;1545517;93;21075;-71
2022/10/16 09:01:23;;;;;;;5.60;3.72;;;;;;;13.95;100.00;101391.84;1526213;93;21090;-71
2022/10/16 09:04:09;;;;;;;5.87;3.15;;;;;;;14.06;100.00;101392.95;1589364;90;21136;-70
2022/10/16 09:07:00;;;;;;;4.20;3.12;;;;;;;14.17;100.00;101391.81;1590775;88;21538;-71
2022/10/16 09:09:35;;;;;;;6.70;3.55;;;;;;;14.25;100.00;101397.27;1590670;88;21110;-71
2022/10/16 09:12:35;;;;;;;5.22;3.60;;;;;;;14.31;100.00;101396.64;1538054;93;21598;-70
2022/10/16 09:15:25;;;;;;;9.48;3.80;;;;;;;14.31;100.00;101391.20;1493040;93;21095;-72
2022/10/16 09:18:17;;;;;;;5.90;3.30;;;;;;;14.38;100.00;101391.41;1492811;96;21148;-70
2022/10/16 09:20:55;;;;;;;3.90;3.05;;;;;;;14.51;100.00;101391.80;1491294;96;21122;-71
2022/10/16 09:23:31;;;;;;;7.90;3.50;;;;;;;14.74;100.00;101386.63;1449353;98;21196;-70
2022/10/16 09:25:58;;;;;;;4.65;3.25;;;;;;;14.99;100.00;101386.69;1428164;100;21712;-69
2022/10/16 09:28:25;;;;;;;5.95;3.00;;;;;;;15.28;100.00;101388.09;1428308;100;21621;-71
2022/10/16 09:30:54;;;;;;;3.35;2.87;;;;;;;15.33;100.00;101385.70;1428276;100;21094;-71
2022/10/16 09:33:25;;;;;;;4.00;3.00;;;;;;;15.34;100.00;101388.79;1431766;99;21169;-70
2022/10/16 09:35:54;;;;;;;5.20;3.37;;;;;;;15.40;100.00;101381.28;1428948;100;21717;-70
2022/10/16 09:38:29;;;;;;;3.83;2.72;;;;;;;15.53;100.00;101374.82;1417399;101;21147;-69
2022/10/16 09:40:58;;;;;;;4.47;2.60;;;;;;;15.64;100.00;101383.16;1458826;98;21679;-71
2022/10/16 09:43:44;;;;;;;4.55;2.90;;;;;;;15.75;100.00;101384.72;1505398;94;21626;-69
2022/10/16 09:46:30;;;;;;;5.12;2.80;;;;;;;15.85;100.00;101382.66;1525588;94;21072;-71
2022/10/16 09:49:01;;;;;;;4.87;2.85;;;;;;;15.99;100.00;101374.28;1526771;94;21068;-70
2022/10/16 09:51:34;;;;;;;4.25;3.25;;;;;;;15.91;100.00;101377.86;1528547;94;21510;-69
2022/10/16 09:54:04;;;;;;;5.03;3.25;;;;;;;15.77;100.00;101375.00;1531286;92;21080;-71
2022/10/16 09:56:33;;;;;;;4.50;3.10;;;;;;;15.81;100.00;101370.41;1552291;92;21156;-70
2022/10/16 09:59:05;;;;;;;5.05;3.25;;;;;;;15.92;100.00;101367.82;1552381;92;21562;-71
2022/10/16 10:01:41;;;;;;;6.70;2.57;;;;;;;15.99;100.00;101372.92;1539403;91;21093;-70
2022/10/16 10:04:08;;;;;;;5.20;2.92;;;;;;;16.03;100.00;101381.61;1565500;91;21136;-70
2022/10/16 10:06:44;;;;;;;6.75;2.50;;;;;;;16.06;100.00;101369.83;1554992;92;21049;-70
2022/10/16 10:09:30;;;;;;;6.00;2.77;;;;;;;16.06;100.00;101368.47;1543101;92;21176;-70
2022/10/16 10:12:03;;;;;;;4.20;2.70;;;;;;;16.06;100.00;101361.64;1582984;90;21055;-70
2022/10/16 10:14:43;;;;;;;4.45;2.72;;;;;;;16.17;100.00;101360.94;1593731;90;21543;-71
2022/10/16 10:17:14;;;;;;;4.20;2.70;;;;;;;16.29;100.00;101354.91;1566052;91;21061;-70
2022/10/16 10:19:55;;;;;;;5.80;2.90;;;;;;;16.39;100.00;101352.48;1565778;90;21089;-74
2022/10/16 10:22:42;;;;;;;3.52;2.85;;;;;;;16.47;100.00;101351.09;1596837;90;21073;-74
2022/10/16 10:25:17;;;;;;;5.50;2.92;;;;;;;16.61;100.00;101348.09;1564751;90;21105;-74
2022/10/16 10:28:17;;;;;;;8.45;3.02;;;;;;;16.72;100.00;101353.17;1568605;91;21074;-73
2022/10/16 10:31:06;;;;;;;3.58;2.77;;;;;;;16.83;100.00;101343.22;1568488;91;21152;-73
2022/10/16 10:34:00;;;;;;;3.25;2.50;;;;;;;17.02;100.00;101347.38;1560665;91;21572;-73
2022/10/16 10:36:39;;;;;;;5.60;3.00;;;;;;;17.11;100.00;101328.19;1551944;92;21111;-72
2022/10/16 10:39:32;;;;;;;4.20;2.60;;;;;;;17.04;100.00;101327.54;1551908;92;21134;-73
2022/10/16 10:42:18;;;;;;;3.58;2.30;;;;;;;17.07;100.00;101326.34;1560250;92;21617;-75
2022/10/16 10:45:04;;;;;;;4.37;2.95;;;;;;;17.16;100.00;101336.17;1560343;88;21575;-73
2022/10/16 10:47:50;;;;;;;4.97;2.77;;;;;;;17.22;100.00;101328.59;1555705;92;21085;-72
2022/10/16 10:50:40;;;;;;;3.83;2.67;;;;;;;17.34;100.00;101329.02;1560285;92;21167;-73
2022/10/16 10:53:46;;;;;;;6.08;2.70;;;;;;;17.47;100.00;101332.48;1553418;92;21046;-73
2022/10/16 10:56:37;;;;;;;3.80;2.60;;;;;;;17.48;100.00;101335.56;1546109;92;21063;-75
2022/10/16 10:59:30;;;;;;;6.60;2.83;;;;;;;17.43;100.00;101332.52;1535210;93;21104;-74
2022/10/16 11:02:19;;;;;;;5.22;2.75;;;;;;;17.40;100.00;101329.63;1561830;91;21079;-74
2022/10/16 11:05:18;;;;;;;5.70;2.85;;;;;;;17.23;100.00;101328.94;1559194;92;21124;-74
2022/10/16 11:08:11;;;;;;;6.45;2.92;;;;;;;17.22;100.00;101329.95;1561950;92;21077;-73
2022/10/16 11:11:12;;;;;;;4.78;2.75;;;;;;;17.36;100.00;101331.04;1536644;92;21108;-74
2022/10/16 11:13:58;;;;;;;3.22;2.80;;;;;;;17.32;100.00;101330.24;1569924;91;21046;-77
2022/10/16 11:16:37;;;;;;;5.28;3.10;;;;;;;17.25;100.00;101321.92;1569654;91;21095;-74
2022/10/16 11:19:35;;;;;;;8.00;2.60;;;;;;;17.19;100.00;101322.15;1570054;91;21109;-75
2022/10/16 11:22:27;;;;;;;5.35;2.90;;;;;;;17.09;100.00;101322.91;1500905;93;21178;-74
2022/10/16 11:25:15;;;;;;;3.25;2.45;;;;;;;16.99;100.00;101323.13;1500951;96;21183;-75
2022/10/16 11:28:13;;;;;;;8.08;3.05;;;;;;;16.89;100.00;101326.13;1500932;96;21112;-75
2022/10/16 11:31:12;;;;;;;4.22;2.83;;;;;;;16.93;100.00;101329.34;1502524;94;21129;-74
2022/10/16 11:33:52;;;;;;;4.55;3.00;;;;;;;17.00;100.00;101327.58;1523829;91;21625;-75
2022/10/16 11:36:39;;;;;;;4.45;2.70;;;;;;;17.04;100.00;101322.60;1554117;91;21052;-75
2022/10/16 11:39:21;;;;;;;5.25;2.85;;;;;;;17.07;100.00;101322.25;1575290;91;21640;-76